Terminal Aerodrome Forecast
Issued by NWS

Home | Current Version | Previous Version | Text Only | Print | Product List | Glossary Off
Versions: 1 2 3 4 5 6 7 8 9 10 11 12 13 14 15 16 17 18 19 20 21 22 23 24

000
FTUS43 KLOT 190901 AAA
TAFMDW
TAF AMD
KMDW 190901Z 1909/2006 23008KT P6SM FEW250
     FM191300 29005KT P6SM FEW250
     FM192000 13005KT P6SM SCT250=

USA.gov is the U.S. government's official web portal to all federal, state and local government web resources and services.